createdAt,value
2018-01-12T11:04:25.833Z,38.10
2018-01-12T11:06:53.233Z,40.10
2018-01-12T11:09:19.917Z,39.30
2018-01-12T11:11:46.582Z,38.50
2018-01-12T11:14:13.247Z,37.00
2018-01-12T11:16:43.574Z,37.10
2018-01-12T11:19:11.000Z,42.30
2018-01-12T11:21:38.428Z,45.50
2018-01-12T11:24:05.116Z,45.50
2018-01-12T11:26:31.780Z,45.80
2018-01-12T11:28:58.497Z,47.50
2018-01-12T11:31:25.168Z,51.00
2018-01-12T11:33:51.994Z,49.90
2018-01-12T11:36:18.661Z,51.80
2018-01-12T11:38:45.412Z,52.90
2018-01-12T11:41:12.083Z,53.10
2018-01-12T11:43:38.745Z,55.50
2018-01-12T11:46:06.172Z,54.60
2018-01-12T11:48:32.829Z,54.60
2018-01-12T11:50:59.490Z,53.70
2018-01-12T11:53:26.922Z,51.30
2018-01-12T11:55:53.612Z,51.30
2018-01-12T11:58:20.404Z,56.20
2018-01-12T12:00:47.141Z,58.30
2018-01-12T12:03:15.613Z,59.60
2018-01-12T12:05:42.293Z,62.80
2018-01-12T12:08:10.514Z,68.10
2018-01-12T12:10:37.273Z,68.10
2018-01-12T12:13:03.921Z,70.80
2018-01-12T12:15:30.668Z,74.10
2018-01-12T12:17:57.315Z,76.30
2018-01-12T12:20:24.006Z,77.70
2018-01-12T12:22:51.400Z,66.60
2018-01-12T12:25:18.805Z,60.50
2018-01-12T12:27:45.488Z,60.50
2018-01-12T12:30:12.130Z,57.20
2018-01-12T12:32:38.805Z,53.20
2018-01-12T12:35:05.453Z,51.20
2018-01-12T12:37:32.089Z,51.20
2018-01-12T12:39:58.774Z,50.00
2018-01-12T12:42:26.173Z,49.80
2018-01-12T12:44:52.847Z,49.80
2018-01-12T12:47:19.539Z,50.70
2018-01-12T12:49:46.426Z,49.80
2018-01-12T12:52:13.093Z,49.60
2018-01-12T12:54:39.811Z,49.60
2018-01-12T12:57:06.524Z,51.30
2018-01-12T12:59:33.195Z,52.20
2018-01-12T13:01:59.856Z,52.60
2018-01-12T13:04:26.526Z,51.00
2018-01-12T13:06:53.974Z,51.50
2018-01-12T13:11:49.673Z,55.20
2018-01-12T13:14:16.354Z,55.10
2018-01-12T13:16:42.983Z,56.40
2018-01-12T13:19:09.686Z,57.60
2018-01-12T13:21:36.386Z,57.40
2018-01-12T13:24:03.021Z,59.10
2018-01-12T13:26:29.670Z,58.00
2018-01-12T13:28:56.354Z,62.00
2018-01-12T13:31:23.777Z,60.20
2018-01-12T13:33:50.425Z,59.30
2018-01-12T13:36:18.518Z,64.20
2018-01-12T13:38:45.903Z,66.20
2018-01-12T13:41:12.653Z,66.20
2018-01-12T13:43:39.344Z,67.50
2018-01-12T13:46:06.739Z,70.10
2018-01-12T13:48:33.401Z,70.00
2018-01-12T13:51:00.108Z,72.20
2018-01-12T13:53:27.509Z,76.60
2018-01-12T13:55:54.145Z,76.70
2018-01-12T13:58:20.800Z,77.60
2018-01-12T14:00:47.485Z,79.20
2018-01-12T14:03:14.918Z,79.00
2018-01-12T14:05:42.380Z,82.30
2018-01-12T14:08:09.075Z,82.30
2018-01-12T14:10:35.760Z,82.00
2018-01-12T14:13:02.409Z,83.20
2018-01-12T14:15:29.053Z,81.90
2018-01-12T14:17:55.771Z,83.10
2018-01-12T14:20:22.434Z,82.70
2018-01-12T14:22:49.084Z,85.00
2018-01-12T14:25:15.737Z,85.90
2018-01-12T14:27:42.422Z,83.70
2018-01-12T14:30:09.078Z,84.40
2018-01-12T14:32:35.705Z,84.70
2018-01-12T14:35:02.369Z,84.20
2018-01-12T14:37:29.037Z,85.30
2018-01-12T14:39:55.721Z,87.40
2018-01-12T14:42:22.416Z,89.10
2018-01-12T14:44:49.070Z,86.50
2018-01-12T14:47:15.734Z,87.40
2018-01-12T14:49:43.134Z,90.00
2018-01-12T14:52:09.923Z,89.90
2018-01-12T14:54:36.605Z,89.70
2018-01-12T14:57:04.174Z,90.90
2018-01-12T14:59:30.855Z,90.40
2018-01-12T15:01:57.506Z,90.60
2018-01-12T15:04:24.149Z,91.00
2018-01-12T15:06:50.824Z,90.80
2018-01-12T15:09:17.490Z,91.20
2018-01-12T15:11:44.139Z,90.80
2018-01-12T15:14:10.841Z,90.80
2018-01-12T15:16:39.108Z,89.30
2018-01-12T15:19:06.498Z,89.80
2018-01-12T15:21:33.192Z,89.70
2018-01-12T15:24:01.164Z,89.00
2018-01-12T15:26:27.925Z,88.90
2018-01-12T15:28:54.665Z,89.10
2018-01-12T15:31:21.306Z,90.60
2018-01-12T15:33:47.969Z,90.90
2018-01-12T15:36:15.377Z,90.90
2018-01-12T15:38:42.080Z,90.90
2018-01-12T15:41:09.642Z,91.00
2018-01-12T15:43:37.904Z,90.80
2018-01-12T15:46:04.543Z,90.80
2018-01-12T15:48:31.215Z,91.00
2018-01-12T15:50:57.880Z,91.60
2018-01-12T15:53:24.648Z,92.10
2018-01-12T15:55:52.164Z,93.10
2018-01-12T15:58:19.797Z,93.00
2018-01-12T16:00:47.198Z,93.90
2018-01-12T16:03:13.909Z,93.70
2018-01-12T16:05:41.721Z,94.30
2018-01-12T16:08:09.011Z,94.30
2018-01-12T16:10:35.740Z,94.80
2018-01-12T16:13:02.606Z,95.00
2018-01-12T16:15:29.281Z,95.20
2018-01-12T16:17:55.948Z,95.30
2018-01-12T16:20:22.705Z,95.50
2018-01-12T16:22:49.369Z,95.50
2018-01-12T16:25:16.055Z,95.70
2018-01-12T16:27:43.453Z,95.70
2018-01-12T16:30:10.484Z,95.70
2018-01-12T16:32:37.671Z,95.90
2018-01-12T16:35:04.426Z,96.20
2018-01-12T16:37:31.097Z,96.20
2018-01-12T16:39:58.590Z,96.60
2018-01-12T16:42:25.256Z,96.60
2018-01-12T16:44:51.916Z,96.60
2018-01-12T16:47:18.609Z,96.40
2018-01-12T16:49:45.390Z,95.80
2018-01-12T16:52:13.008Z,95.90
2018-01-12T16:54:40.397Z,95.90
2018-01-12T16:57:07.070Z,95.80
2018-01-12T16:59:34.249Z,96.30
2018-01-12T17:02:01.763Z,97.00
2018-01-12T17:04:28.472Z,97.00
2018-01-12T17:06:55.943Z,97.20
2018-01-12T17:09:22.702Z,98.00
2018-01-12T17:11:50.042Z,99.20
2018-01-12T17:14:17.473Z,99.00
2018-01-12T17:16:45.661Z,98.50
2018-01-12T17:19:13.050Z,99.10
2018-01-12T17:21:39.746Z,98.70
2018-01-12T17:24:06.387Z,98.40
2018-01-12T17:26:33.086Z,97.50
2018-01-12T17:28:59.757Z,98.30
2018-01-12T17:31:26.402Z,98.80
2018-01-12T17:33:53.830Z,98.60
2018-01-12T17:36:20.628Z,97.30
2018-01-12T17:38:47.281Z,98.50
2018-01-12T17:41:14.697Z,99.20
2018-01-12T17:43:41.370Z,99.10
2018-01-12T17:46:08.030Z,99.60
2018-01-12T17:48:35.463Z,99.40
2018-01-12T17:51:02.156Z,99.40
2018-01-12T17:53:29.165Z,99.50
2018-01-12T17:55:55.794Z,98.90
2018-01-12T17:58:22.506Z,98.70
2018-01-12T18:00:49.291Z,99.60
2018-01-12T18:03:15.950Z,99.90
2018-01-12T18:05:42.614Z,99.90
2018-01-12T18:08:10.122Z,99.80
2018-01-12T18:10:37.561Z,99.90
2018-01-12T18:13:04.247Z,99.90
2018-01-12T18:15:31.964Z,99.90
2018-01-12T18:17:58.605Z,99.90
2018-01-12T18:20:25.316Z,99.90
2018-01-12T18:22:52.804Z,99.90
2018-01-12T18:25:19.542Z,99.90
2018-01-12T18:27:46.191Z,99.90
2018-01-12T18:30:12.859Z,99.90
2018-01-12T18:32:39.576Z,99.90
2018-01-12T18:35:06.220Z,99.90
2018-01-12T18:37:32.855Z,99.90
2018-01-12T18:39:59.633Z,99.90
2018-01-12T18:42:26.273Z,99.90
2018-01-12T18:44:52.926Z,99.90
2018-01-12T18:47:19.604Z,99.90
2018-01-12T18:49:46.343Z,99.90
2018-01-12T18:52:13.020Z,99.90
2018-01-12T18:54:39.694Z,99.90
2018-01-12T18:57:06.717Z,99.90
2018-01-12T18:59:33.374Z,99.90
2018-01-12T19:02:00.860Z,99.90
2018-01-12T19:04:27.641Z,99.90
2018-01-12T19:06:55.950Z,99.90
2018-01-12T19:09:22.606Z,99.90
2018-01-12T19:11:49.303Z,99.90
2018-01-12T19:14:16.066Z,99.90
2018-01-12T19:16:43.477Z,99.90
2018-01-12T19:19:10.215Z,99.90
2018-01-12T19:21:37.612Z,99.90
2018-01-12T19:24:05.077Z,99.90
2018-01-12T19:26:33.466Z,99.90
2018-01-12T19:29:00.870Z,99.90
2018-01-12T19:31:27.629Z,99.90
2018-01-12T19:33:55.926Z,99.90
2018-01-12T19:36:22.573Z,99.90
2018-01-12T19:38:49.239Z,99.90
2018-01-12T19:41:16.764Z,99.90
2018-01-12T19:43:43.433Z,99.90
2018-01-12T19:46:10.847Z,99.90
2018-01-12T19:48:37.722Z,99.90
2018-01-12T19:51:04.553Z,99.90
2018-01-12T19:53:31.974Z,99.90
2018-01-12T19:55:59.468Z,99.90
2018-01-12T19:58:27.082Z,99.90
2018-01-12T20:00:54.571Z,99.90
2018-01-12T20:03:22.436Z,99.90
2018-01-12T20:05:49.141Z,99.90
2018-01-12T20:08:15.789Z,99.90
2018-01-12T20:10:42.729Z,99.90
2018-01-12T20:13:09.761Z,99.90
2018-01-12T20:15:37.463Z,99.90
2018-01-12T20:18:04.248Z,99.90
2018-01-12T20:20:31.209Z,99.90
2018-01-12T20:22:58.659Z,99.90
2018-01-12T20:25:25.321Z,99.90
2018-01-12T20:27:52.237Z,99.90
2018-01-12T20:30:18.964Z,99.90
2018-01-12T20:32:47.027Z,99.90
2018-01-12T20:35:14.016Z,99.90
2018-01-12T20:37:40.982Z,99.90
2018-01-12T20:40:08.752Z,99.90
2018-01-12T20:42:36.199Z,99.90
2018-01-12T20:45:02.887Z,99.90
2018-01-12T20:47:29.560Z,99.90
2018-01-12T20:49:57.086Z,99.90
2018-01-12T20:52:23.725Z,99.90
2018-01-12T20:54:50.407Z,99.90
2018-01-12T20:57:17.399Z,99.90
2018-01-12T20:59:44.050Z,99.90
2018-01-12T21:02:10.876Z,99.90
2018-01-12T21:04:37.626Z,99.90
2018-01-12T21:07:04.234Z,99.90
2018-01-12T21:09:30.996Z,99.90
2018-01-12T21:11:58.029Z,99.90
2018-01-12T21:14:25.861Z,99.90
2018-01-12T21:16:52.545Z,99.90
2018-01-12T21:19:20.197Z,99.90
2018-01-12T21:21:47.596Z,99.90
2018-01-12T21:24:14.240Z,99.90
2018-01-12T21:26:40.925Z,99.90
2018-01-12T21:29:07.579Z,99.90
2018-01-12T21:31:35.004Z,99.90
2018-01-12T21:34:01.702Z,99.90
2018-01-12T21:36:29.269Z,99.90
2018-01-12T21:38:55.938Z,99.90
2018-01-12T21:41:22.906Z,99.90
2018-01-12T21:43:50.166Z,99.90
2018-01-12T21:46:16.847Z,99.90
2018-01-12T21:48:44.579Z,99.90
2018-01-12T21:51:11.226Z,99.90
2018-01-12T21:53:37.926Z,99.90
2018-01-12T21:56:04.571Z,99.90
2018-01-12T21:58:31.254Z,99.90
2018-01-12T22:00:58.016Z,99.90
2018-01-12T22:03:25.590Z,99.90
2018-01-12T22:05:53.066Z,99.90
2018-01-12T22:08:19.713Z,99.90
2018-01-12T22:10:46.371Z,99.90
2018-01-12T22:13:13.077Z,99.90
2018-01-12T22:15:40.477Z,99.90
2018-01-12T22:18:07.137Z,99.90
2018-01-12T22:20:33.813Z,99.90
2018-01-12T22:23:01.961Z,99.90
2018-01-12T22:25:28.620Z,99.90
2018-01-12T22:27:55.272Z,99.90
2018-01-12T22:30:21.941Z,99.90
2018-01-12T22:32:48.696Z,99.90
2018-01-12T22:35:16.367Z,99.90
2018-01-12T22:37:42.993Z,99.90
2018-01-12T22:40:09.657Z,99.90
2018-01-12T22:42:36.326Z,99.90
2018-01-12T22:45:03.024Z,99.90
2018-01-12T22:47:29.801Z,99.90
2018-01-12T22:49:57.300Z,99.90
2018-01-12T22:52:23.962Z,99.90
2018-01-12T22:54:50.837Z,99.90
2018-01-12T22:57:17.583Z,99.90
2018-01-12T22:59:44.221Z,99.90
2018-01-12T23:02:11.966Z,99.90
2018-01-12T23:04:40.504Z,99.90
2018-01-12T23:07:07.168Z,99.90
2018-01-12T23:09:34.968Z,99.90
2018-01-12T23:12:02.465Z,99.90
2018-01-12T23:14:29.177Z,99.90
2018-01-12T23:16:55.802Z,99.90
2018-01-12T23:19:22.510Z,99.90
2018-01-12T23:21:49.293Z,99.90
2018-01-12T23:24:16.794Z,99.90
2018-01-12T23:26:43.489Z,99.90
2018-01-12T23:29:10.902Z,99.90
2018-01-12T23:31:38.444Z,99.90
2018-01-12T23:34:05.122Z,99.90
2018-01-12T23:36:31.884Z,99.90
2018-01-12T23:38:58.537Z,99.90
2018-01-12T23:41:26.184Z,99.90
2018-01-12T23:43:52.822Z,99.90
2018-01-12T23:46:19.517Z,99.90
2018-01-12T23:48:47.981Z,99.90
2018-01-12T23:51:16.427Z,99.90
2018-01-12T23:53:43.121Z,99.90
2018-01-12T23:56:10.580Z,99.90
2018-01-12T23:58:37.977Z,99.90
